LKTC weather

Točná Airfield
Tocna, Prague (capital city), Czechia

Public forecast

Using degrees Celsius for public forecast. Weather courtesy of forecast.io.

Closest aviation weather report (METAR) to Točná Airfield

Closest report is Kbely Air Base, 9.3 nm (17.3 km) NNE. Retrieved 2019/10/23 08:24 UTC (25 minutes ago):

LKKB 230824Z 05006KT 1500 BR BKN003 OVC036 12/12 Q1020 RMK AMB

Closest aviation forecast (TAF) to Točná Airfield

Closest forecast is Kbely Air Base, 9.3 nm (17.3 km) NNE. Retrieved 2019/10/23 06:00 UTC (3 hours ago):

TAF LKKB 230500Z 2306/2406 VRB02KT 0300 FG VV001 BECMG 2309/2311 08004KT 3000 BR BKN030 TEMPO 2312/2320 5000 BR BKN040 BECMG 2318/2320 VRB02KT 2000 BR TEMPO 2322/2406 0300 FG VV001